createdAt,value
2018-11-29T00:02:55.014Z,145.90
2018-11-29T00:05:54.656Z,126.83
2018-11-29T00:08:50.902Z,158.13
2018-11-29T00:11:47.320Z,126.43
2018-11-29T00:14:43.752Z,136.60
2018-11-29T00:17:40.558Z,187.03
2018-11-29T00:20:37.698Z,169.50
2018-11-29T00:23:34.010Z,219.07
2018-11-29T00:26:30.422Z,153.83
2018-11-29T00:29:26.322Z,144.20
2018-11-29T00:32:22.547Z,206.17
2018-11-29T00:35:19.536Z,193.83
2018-11-29T00:38:15.944Z,194.97
2018-11-29T00:41:12.217Z,180.73
2018-11-29T00:44:08.380Z,192.03
2018-11-29T00:47:04.714Z,189.27
2018-11-29T00:50:01.768Z,190.03
2018-11-29T00:53:10.966Z,179.60
2018-11-29T00:56:07.193Z,186.13
2018-11-29T00:59:03.758Z,203.93
2018-11-29T01:02:06.547Z,193.33
2018-11-29T01:05:03.293Z,195.40
2018-11-29T01:07:59.222Z,214.30
2018-11-29T01:10:57.919Z,218.43
2018-11-29T01:13:57.278Z,219.10
2018-11-29T01:16:56.731Z,235.70
2018-11-29T01:19:52.959Z,272.90
2018-11-29T01:22:49.060Z,238.70
2018-11-29T01:25:44.605Z,231.67
2018-11-29T01:28:41.143Z,236.10
2018-11-29T01:31:37.268Z,244.87
2018-11-29T01:34:32.919Z,235.97
2018-11-29T01:37:29.151Z,250.70
2018-11-29T01:40:28.422Z,253.90
2018-11-29T01:43:24.034Z,281.63
2018-11-29T01:46:20.074Z,275.27
2018-11-29T01:49:16.283Z,226.57
2018-11-29T01:52:12.718Z,266.80
2018-11-29T01:55:08.558Z,238.27
2018-11-29T01:58:05.201Z,246.10
2018-11-29T02:01:01.737Z,274.67
2018-11-29T02:04:00.841Z,327.87
2018-11-29T02:06:56.965Z,383.97
2018-11-29T02:09:53.919Z,262.47
2018-11-29T02:12:50.442Z,330.50
2018-11-29T02:15:49.663Z,330.37
2018-11-29T02:18:46.427Z,357.60
2018-11-29T02:22:04.641Z,346.67
2018-11-29T02:24:50.849Z,328.07
2018-11-29T02:27:46.750Z,311.07
2018-11-29T02:30:43.521Z,333.67
2018-11-29T02:33:40.670Z,318.43
2018-11-29T02:36:37.002Z,333.17
2018-11-29T02:39:35.996Z,317.17
2018-11-29T02:42:32.540Z,315.43
2018-11-29T02:45:29.480Z,313.10
2018-11-29T02:48:25.568Z,328.07
2018-11-29T02:51:24.297Z,317.57
2018-11-29T02:54:20.222Z,298.87
2018-11-29T02:57:16.767Z,289.43
2018-11-29T03:00:18.544Z,260.23
2018-11-29T03:03:20.374Z,289.83
2018-11-29T03:06:17.106Z,284.40
2018-11-29T03:09:17.616Z,269.33
2018-11-29T03:12:10.655Z,275.37
2018-11-29T03:15:10.226Z,268.60
2018-11-29T03:18:06.601Z,263.47
2018-11-29T03:21:03.562Z,251.83
2018-11-29T03:23:59.815Z,261.10
2018-11-29T03:26:56.512Z,256.17
2018-11-29T03:29:52.997Z,255.10
2018-11-29T03:32:49.522Z,264.20
2018-11-29T03:35:45.712Z,264.63
2018-11-29T03:38:42.512Z,253.77
2018-11-29T03:41:39.195Z,307.53
2018-11-29T03:44:35.587Z,286.57
2018-11-29T03:47:32.054Z,277.87
2018-11-29T03:50:28.194Z,304.30
2018-11-29T03:53:24.871Z,319.97
2018-11-29T03:56:20.977Z,360.00
2018-11-29T03:59:17.413Z,345.47
2018-11-29T04:02:13.626Z,326.67
2018-11-29T04:05:10.644Z,319.60
2018-11-29T04:08:09.975Z,297.40
2018-11-29T04:11:06.157Z,297.30
2018-11-29T04:14:05.727Z,299.60
2018-11-29T04:17:02.226Z,281.90
2018-11-29T04:19:59.020Z,273.83
2018-11-29T04:22:55.080Z,273.70
2018-11-29T04:25:51.178Z,277.60
2018-11-29T04:28:47.750Z,257.77
2018-11-29T04:31:45.328Z,263.70
2018-11-29T04:34:41.728Z,246.97
2018-11-29T04:37:38.444Z,237.43
2018-11-29T04:40:37.955Z,258.77
2018-11-29T04:43:36.678Z,241.90
2018-11-29T04:46:54.780Z,239.17
2018-11-29T04:49:51.290Z,237.10
2018-11-29T04:52:47.619Z,234.10
2018-11-29T04:55:43.885Z,230.57
2018-11-29T04:58:40.185Z,229.73
2018-11-29T05:01:41.662Z,227.63
2018-11-29T05:04:40.134Z,213.53
2018-11-29T05:07:40.438Z,208.10
2018-11-29T05:10:36.395Z,203.47
2018-11-29T05:13:32.684Z,205.20
2018-11-29T05:16:43.356Z,189.30
2018-11-29T05:19:44.573Z,220.93
2018-11-29T05:22:53.274Z,172.10
2018-11-29T05:25:52.932Z,160.57
2018-11-29T05:28:49.544Z,160.50
2018-11-29T05:31:45.616Z,175.30
2018-11-29T05:34:42.522Z,161.43
2018-11-29T05:37:42.461Z,167.93
2018-11-29T05:40:42.298Z,175.77
2018-11-29T05:43:53.169Z,163.23
2018-11-29T05:46:50.285Z,164.57
2018-11-29T05:49:46.931Z,161.73
2018-11-29T05:52:43.883Z,161.73
2018-11-29T05:55:41.445Z,174.93
2018-11-29T05:58:46.539Z,171.87
2018-11-29T06:01:49.011Z,174.77
2018-11-29T06:04:49.080Z,166.23
2018-11-29T06:07:51.844Z,163.87
2018-11-29T06:10:55.383Z,158.77
2018-11-29T06:13:51.684Z,154.40
2018-11-29T06:16:47.918Z,152.97
2018-11-29T06:19:44.455Z,162.70
2018-11-29T06:22:47.578Z,148.53
2018-11-29T06:25:58.167Z,151.40
2018-11-29T06:28:59.860Z,140.57
2018-11-29T06:32:03.865Z,138.00
2018-11-29T06:35:00.256Z,144.90
2018-11-29T06:38:01.854Z,149.87
2018-11-29T06:40:59.357Z,147.83
2018-11-29T06:43:56.573Z,146.67
2018-11-29T06:46:52.628Z,146.50
2018-11-29T06:49:53.885Z,126.77
2018-11-29T06:52:51.139Z,133.37
2018-11-29T06:55:48.252Z,141.40
2018-11-29T06:58:44.701Z,143.73
2018-11-29T07:01:41.365Z,127.60
2018-11-29T07:04:38.617Z,130.03
2018-11-29T07:07:35.976Z,129.10
2018-11-29T07:10:55.072Z,130.23
2018-11-29T07:13:47.936Z,130.63
2018-11-29T07:16:42.398Z,127.73
2018-11-29T07:19:45.706Z,117.83
2018-11-29T07:22:44.957Z,123.97
2018-11-29T07:25:44.376Z,115.37
2018-11-29T07:28:41.262Z,121.13
2018-11-29T07:31:39.529Z,125.53
2018-11-29T07:34:53.084Z,126.63
2018-11-29T07:37:49.392Z,119.50
2018-11-29T07:40:56.647Z,123.47
2018-11-29T07:43:51.930Z,128.73
2018-11-29T07:47:06.217Z,116.23
2018-11-29T07:50:11.818Z,125.10
2018-11-29T07:53:05.216Z,116.03
2018-11-29T07:56:05.418Z,120.13
2018-11-29T07:59:06.761Z,115.70
2018-11-29T08:02:04.170Z,119.77
2018-11-29T08:05:01.932Z,124.13
2018-11-29T08:07:59.383Z,115.30
2018-11-29T08:11:00.864Z,120.57
2018-11-29T08:13:59.622Z,114.83
2018-11-29T08:16:56.621Z,127.83
2018-11-29T08:20:00.381Z,104.77
2018-11-29T08:22:58.070Z,119.33
2018-11-29T08:25:54.810Z,117.03
2018-11-29T08:29:03.260Z,123.97
2018-11-29T08:31:53.176Z,118.60
2018-11-29T08:34:49.476Z,123.00
2018-11-29T08:37:49.001Z,117.87
2018-11-29T08:40:49.225Z,123.33
2018-11-29T08:43:50.179Z,116.20
2018-11-29T08:46:47.008Z,108.53
2018-11-29T08:49:43.541Z,112.90
2018-11-29T08:52:58.928Z,110.53
2018-11-29T08:58:59.382Z,103.40
2018-11-29T09:01:57.499Z,111.47
2018-11-29T09:04:55.301Z,108.97
2018-11-29T09:08:05.667Z,110.63
2018-11-29T09:11:00.393Z,106.80
2018-11-29T09:14:03.958Z,109.27
2018-11-29T09:20:55.503Z,119.47
2018-11-29T09:23:59.619Z,106.97
2018-11-29T09:27:10.166Z,130.97
2018-11-29T09:37:55.062Z,117.80
2018-11-29T09:40:56.299Z,110.77
2018-11-29T09:43:54.675Z,122.80
2018-11-29T09:46:52.241Z,127.97
2018-11-29T09:49:56.670Z,120.93
2018-11-29T09:52:54.368Z,115.43
2018-11-29T09:55:52.375Z,131.17
2018-11-29T09:58:51.799Z,120.53
2018-11-29T10:01:49.684Z,116.17
2018-11-29T10:04:47.372Z,113.70
2018-11-29T10:07:45.798Z,119.50
2018-11-29T10:10:43.976Z,126.43
2018-11-29T10:13:46.373Z,125.25
2018-11-29T10:16:42.917Z,117.67
2018-11-29T10:19:42.996Z,117.50
2018-11-29T10:22:40.513Z,125.37
2018-11-29T10:25:37.618Z,119.83
2018-11-29T10:28:43.789Z,122.83
2018-11-29T10:31:41.688Z,116.60
2018-11-29T10:34:40.156Z,108.47
2018-11-29T10:37:37.780Z,117.23
2018-11-29T10:40:36.440Z,109.60
2018-11-29T10:43:34.791Z,104.93
2018-11-29T10:46:37.387Z,112.83
2018-11-29T10:49:35.094Z,114.87
2018-11-29T10:52:33.954Z,114.37
2018-11-29T10:55:32.119Z,106.23
2018-11-29T10:58:29.574Z,115.80
2018-11-29T11:01:48.753Z,109.00
2018-11-29T11:04:46.352Z,104.03
2018-11-29T11:07:44.339Z,106.40
2018-11-29T11:10:41.885Z,102.23
2018-11-29T11:13:39.646Z,101.30
2018-11-29T11:16:36.719Z,114.97
2018-11-29T11:19:34.110Z,100.43
2018-11-29T11:22:39.205Z,108.97
2018-11-29T11:25:37.490Z,103.27
2018-11-29T11:28:39.117Z,106.80
2018-11-29T11:31:37.221Z,116.57
2018-11-29T11:34:37.100Z,115.47
2018-11-29T11:37:44.979Z,114.35
2018-11-29T11:40:43.052Z,109.53
2018-11-29T11:43:40.911Z,107.87
2018-11-29T11:46:38.010Z,109.43
2018-11-29T11:49:35.356Z,115.23
2018-11-29T11:52:34.929Z,105.50
2018-11-29T11:55:32.208Z,114.80
2018-11-29T11:58:32.648Z,106.23
2018-11-29T12:01:33.585Z,119.20
2018-11-29T12:04:31.043Z,145.00
2018-11-29T12:07:28.929Z,124.37
2018-11-29T12:10:26.289Z,116.03
2018-11-29T12:13:23.608Z,126.00
2018-11-29T12:16:21.330Z,116.93
2018-11-29T12:19:19.681Z,129.77
2018-11-29T12:22:17.146Z,136.47
2018-11-29T12:25:22.496Z,134.90
2018-11-29T12:28:22.669Z,113.03
2018-11-29T12:31:20.494Z,122.50
2018-11-29T12:34:17.828Z,126.13
2018-11-29T12:37:15.903Z,135.30
2018-11-29T12:40:23.537Z,122.30
2018-11-29T12:43:24.516Z,134.20
2018-11-29T12:46:22.245Z,140.80
2018-11-29T12:49:19.635Z,128.07
2018-11-29T12:52:17.282Z,147.73
2018-11-29T12:55:15.568Z,141.43
2018-11-29T12:58:12.971Z,134.67
2018-11-29T13:01:10.759Z,129.53
2018-11-29T13:04:11.091Z,116.37
2018-11-29T13:07:11.739Z,124.50
2018-11-29T13:10:13.385Z,121.07
2018-11-29T13:13:12.088Z,120.57
2018-11-29T13:16:12.393Z,134.33
2018-11-29T13:19:09.800Z,130.90
2018-11-29T13:22:06.707Z,134.57
2018-11-29T13:25:03.730Z,141.30
2018-11-29T13:28:03.662Z,132.23
2018-11-29T13:31:05.175Z,129.60
2018-11-29T13:34:02.364Z,131.53
2018-11-29T13:36:59.058Z,148.93
2018-11-29T13:39:56.329Z,135.43
2018-11-29T13:42:53.265Z,145.67
2018-11-29T13:45:50.120Z,133.60
2018-11-29T13:48:46.943Z,157.07
2018-11-29T13:51:44.286Z,138.20
2018-11-29T13:54:41.546Z,143.13
2018-11-29T13:57:38.535Z,138.30
2018-11-29T14:00:36.035Z,132.17
2018-11-29T14:03:36.447Z,147.03
2018-11-29T14:06:33.831Z,155.53
2018-11-29T14:09:31.150Z,146.83
2018-11-29T14:12:28.002Z,150.33
2018-11-29T14:15:34.116Z,139.00
2018-11-29T14:18:31.171Z,131.60
2018-11-29T14:21:29.373Z,139.67
2018-11-29T14:24:28.405Z,134.77
2018-11-29T14:27:25.546Z,145.00
2018-11-29T14:30:31.566Z,143.80
2018-11-29T14:33:28.538Z,136.13
2018-11-29T14:36:26.451Z,153.60
2018-11-29T14:39:23.650Z,162.20
2018-11-29T14:42:21.025Z,151.13
2018-11-29T14:45:19.006Z,137.67
2018-11-29T14:48:15.893Z,143.70
2018-11-29T14:51:13.158Z,151.83
2018-11-29T14:54:10.400Z,146.73
2018-11-29T14:57:08.120Z,142.33
2018-11-29T15:00:06.171Z,144.43
2018-11-29T15:03:04.073Z,140.50
2018-11-29T15:06:01.610Z,141.10
2018-11-29T15:08:58.780Z,134.50
2018-11-29T15:11:55.881Z,141.00
2018-11-29T15:14:53.398Z,138.73
2018-11-29T15:17:51.277Z,140.77
2018-11-29T15:21:01.623Z,139.23
2018-11-29T15:23:59.954Z,146.73
2018-11-29T15:26:57.087Z,132.07
2018-11-29T15:29:54.112Z,144.93
2018-11-29T15:32:51.437Z,154.37
2018-11-29T15:35:49.156Z,145.00
2018-11-29T15:38:46.260Z,150.90
2018-11-29T15:41:43.046Z,126.30
2018-11-29T15:44:43.116Z,153.87
2018-11-29T15:47:40.211Z,141.47
2018-11-29T15:50:39.017Z,176.00
2018-11-29T15:53:36.340Z,153.53
2018-11-29T15:56:33.285Z,161.73
2018-11-29T15:59:30.203Z,154.73
2018-11-29T16:02:27.356Z,155.40
2018-11-29T16:05:25.061Z,156.93
2018-11-29T16:08:22.358Z,164.90
2018-11-29T16:11:19.689Z,152.77
2018-11-29T16:14:16.621Z,151.30
2018-11-29T16:17:14.225Z,153.90
2018-11-29T16:20:20.854Z,147.90
2018-11-29T16:23:17.809Z,152.43
2018-11-29T16:26:15.181Z,150.37
2018-11-29T16:29:11.915Z,171.83
2018-11-29T16:32:12.336Z,166.47
2018-11-29T16:35:09.581Z,165.93
2018-11-29T16:38:06.867Z,152.10
2018-11-29T16:41:04.600Z,151.20
2018-11-29T16:44:02.415Z,159.23
2018-11-29T16:47:00.070Z,153.97
2018-11-29T16:49:57.899Z,187.33
2018-11-29T16:52:55.386Z,170.40
2018-11-29T16:55:52.632Z,163.53
2018-11-29T16:58:49.983Z,153.60
2018-11-29T17:01:47.427Z,156.27
2018-11-29T17:04:44.642Z,155.97
2018-11-29T17:07:41.925Z,154.50
2018-11-29T17:10:43.264Z,156.40
2018-11-29T17:13:37.155Z,175.30
2018-11-29T17:16:34.275Z,162.97
2018-11-29T17:19:31.841Z,148.00
2018-11-29T17:22:28.807Z,161.07
2018-11-29T17:25:28.057Z,157.83
2018-11-29T17:28:25.416Z,163.90
2018-11-29T17:31:22.586Z,158.97
2018-11-29T17:34:19.105Z,154.00
2018-11-29T17:37:15.123Z,151.47
2018-11-29T17:40:17.087Z,167.47
2018-11-29T17:43:13.378Z,162.67
2018-11-29T17:46:09.527Z,168.03
2018-11-29T17:49:06.451Z,159.80
2018-11-29T17:52:03.095Z,160.73
2018-11-29T17:54:59.228Z,159.53
2018-11-29T17:57:56.170Z,163.73
2018-11-29T18:00:53.942Z,166.43
2018-11-29T18:03:50.211Z,171.00
2018-11-29T18:06:53.047Z,161.27
2018-11-29T18:09:49.029Z,170.67
2018-11-29T18:12:49.213Z,173.07
2018-11-29T18:15:45.669Z,163.33
2018-11-29T18:18:41.662Z,145.20
2018-11-29T18:21:38.874Z,165.80
2018-11-29T18:24:34.795Z,156.80
2018-11-29T18:27:31.381Z,158.07
2018-11-29T18:30:27.916Z,146.40
2018-11-29T18:33:24.060Z,162.70
2018-11-29T18:36:20.430Z,150.73
2018-11-29T18:39:17.086Z,151.07
2018-11-29T18:42:13.958Z,153.30
2018-11-29T18:45:11.871Z,155.80
2018-11-29T18:48:07.819Z,151.93
2018-11-29T18:51:03.765Z,147.90
2018-11-29T18:53:59.864Z,158.20
2018-11-29T18:56:58.915Z,155.17
2018-11-29T18:59:55.113Z,162.63
2018-11-29T19:02:56.781Z,161.50
2018-11-29T19:05:48.594Z,160.77
2018-11-29T19:08:44.720Z,173.10
2018-11-29T19:11:41.222Z,167.57
2018-11-29T19:14:37.385Z,172.50
2018-11-29T19:17:33.986Z,157.33
2018-11-29T19:20:30.446Z,162.57
2018-11-29T19:23:30.176Z,171.77
2018-11-29T19:26:26.705Z,166.67
2018-11-29T19:29:22.680Z,159.90
2018-11-29T19:32:19.481Z,160.73
2018-11-29T19:35:16.247Z,178.17
2018-11-29T19:38:12.745Z,163.60
2018-11-29T19:41:08.966Z,176.83
2018-11-29T19:44:07.424Z,175.67
2018-11-29T19:47:03.502Z,172.73
2018-11-29T19:50:00.148Z,155.30
2018-11-29T19:53:00.816Z,154.77
2018-11-29T19:56:07.546Z,163.87
2018-11-29T19:59:03.857Z,148.03
2018-11-29T20:02:00.017Z,152.63
2018-11-29T20:04:59.189Z,151.07
2018-11-29T20:07:55.586Z,145.87
2018-11-29T20:10:52.196Z,148.97
2018-11-29T20:13:48.292Z,137.40
2018-11-29T20:16:44.308Z,142.30
2018-11-29T20:19:44.255Z,131.13
2018-11-29T20:22:40.270Z,143.70
2018-11-29T20:25:39.804Z,138.87
2018-11-29T20:28:36.176Z,140.80
2018-11-29T20:31:32.535Z,132.03
2018-11-29T20:34:28.691Z,131.20
2018-11-29T20:37:24.892Z,131.27
2018-11-29T20:40:41.093Z,134.03
2018-11-29T20:43:41.018Z,125.47
2018-11-29T20:46:34.288Z,120.67
2018-11-29T20:49:30.347Z,119.10
2018-11-29T20:52:26.752Z,130.97
2018-11-29T20:55:26.649Z,137.00
2018-11-29T20:58:22.602Z,131.87
2018-11-29T21:01:19.861Z,130.10
2018-11-29T21:04:16.092Z,128.00
2018-11-29T21:07:12.445Z,126.40
2018-11-29T21:10:09.060Z,115.30
2018-11-29T21:13:11.991Z,112.50
2018-11-29T21:16:08.146Z,123.93
2018-11-29T21:19:04.772Z,122.60
2018-11-29T21:22:01.936Z,114.57
2018-11-29T21:24:58.217Z,115.67
2018-11-29T21:28:01.037Z,119.77
2018-11-29T21:30:57.649Z,111.03
2018-11-29T21:33:53.775Z,112.10
2018-11-29T21:36:49.827Z,120.07
2018-11-29T21:39:45.854Z,117.10
2018-11-29T21:42:50.931Z,110.90
2018-11-29T21:45:39.693Z,114.33
2018-11-29T21:48:35.924Z,125.17
2018-11-29T21:51:33.104Z,132.63
2018-11-29T21:54:30.118Z,113.83
2018-11-29T21:57:25.955Z,105.30
2018-11-29T22:00:23.633Z,111.90
2018-11-29T22:03:20.259Z,114.00
2018-11-29T22:06:16.533Z,110.30
2018-11-29T22:09:14.099Z,119.53
2018-11-29T22:12:10.660Z,115.63
2018-11-29T22:15:06.779Z,116.87
2018-11-29T22:18:21.473Z,112.30
2018-11-29T22:21:18.438Z,133.00
2018-11-29T22:24:14.828Z,111.20
2018-11-29T22:27:10.870Z,111.37
2018-11-29T22:30:07.788Z,112.20
2018-11-29T22:33:04.443Z,118.83
2018-11-29T22:36:00.333Z,122.37
2018-11-29T22:38:56.572Z,115.23
2018-11-29T22:41:53.011Z,112.17
2018-11-29T22:44:52.308Z,109.50
2018-11-29T22:47:48.237Z,123.90
2018-11-29T22:50:44.874Z,112.67
2018-11-29T22:53:41.473Z,108.80
2018-11-29T22:56:40.518Z,113.83
2018-11-29T22:59:37.385Z,117.73
2018-11-29T23:02:33.587Z,110.60
2018-11-29T23:05:31.504Z,116.10
2018-11-29T23:08:28.031Z,104.97
2018-11-29T23:11:24.902Z,112.63
2018-11-29T23:14:21.409Z,111.53
2018-11-29T23:17:17.867Z,109.57
2018-11-29T23:20:20.216Z,128.80
2018-11-29T23:23:16.437Z,118.40
2018-11-29T23:26:12.708Z,125.93
2018-11-29T23:29:09.222Z,124.37
2018-11-29T23:32:06.390Z,118.63
2018-11-29T23:35:02.552Z,122.50
2018-11-29T23:37:58.407Z,143.43
2018-11-29T23:40:54.356Z,138.37
2018-11-29T23:43:54.050Z,167.00
2018-11-29T23:46:50.054Z,160.43
2018-11-29T23:49:46.070Z,146.67
2018-11-29T23:52:45.218Z,156.70
2018-11-29T23:55:41.784Z,189.50
2018-11-29T23:58:38.020Z,178.27
